Time;durP1;ratioP1;P1;durP2;ratioP2;P2;SDS_P1;SDS_P2;PMS_P1;PMS_P2;Temp;Humidity;BMP_temperature;BMP_pressure;BME280_temperature;BME280_humidity;BME280_pressure;Samples;Min_cycle;Max_cycle;Signal;HPM_P1;HPM_P2
2021/07/29 00:01:31;;;;;;;4.93;3.70;;;22.70;60.30;;;;;;5032416;28;20920;-46
2021/07/29 00:03:56;;;;;;;3.70;3.40;;;22.70;60.70;;;;;;5032076;28;20231;-47
2021/07/29 00:06:22;;;;;;;3.00;2.80;;;22.70;60.90;;;;;;5031847;28;20272;-46
2021/07/29 00:08:47;;;;;;;4.30;3.87;;;22.60;61.60;;;;;;5032682;28;20189;-48
2021/07/29 00:11:19;;;;;;;3.70;3.33;;;22.20;62.50;;;;;;5032104;28;20699;-48
2021/07/29 00:13:44;;;;;;;4.33;3.93;;;21.90;63.80;;;;;;5032203;28;20193;-46
2021/07/29 00:16:10;;;;;;;4.13;3.83;;;21.80;63.90;;;;;;5032050;28;20434;-48
2021/07/29 00:21:19;;;;;;;4.70;3.47;;;21.80;64.10;;;;;;5036965;28;20687;-46
2021/07/29 00:23:49;;;;;;;4.97;3.40;;;21.80;64.10;;;;;;5032328;28;20424;-47
2021/07/29 00:26:16;;;;;;;4.80;3.63;;;21.80;64.10;;;;;;5029499;28;20271;-47
2021/07/29 00:28:41;;;;;;;3.53;3.23;;;21.90;63.60;;;;;;5032330;28;20436;-46
2021/07/29 00:31:07;;;;;;;3.80;3.47;;;22.10;63.00;;;;;;5031703;28;20428;-47
2021/07/29 00:33:32;;;;;;;5.90;3.60;;;22.20;62.20;;;;;;5031824;28;20217;-46
2021/07/29 00:35:58;;;;;;;3.80;3.50;;;22.30;61.50;;;;;;5031208;28;20606;-47
2021/07/29 00:38:23;;;;;;;3.87;3.30;;;22.40;61.00;;;;;;5032000;28;20220;-46
2021/07/29 00:40:49;;;;;;;3.50;3.20;;;22.50;60.60;;;;;;5031621;28;20359;-47
2021/07/29 00:43:16;;;;;;;4.90;3.20;;;22.40;60.50;;;;;;5032000;28;20189;-46
2021/07/29 00:45:43;;;;;;;3.50;3.30;;;22.50;60.50;;;;;;5031437;28;20209;-46
2021/07/29 00:48:10;;;;;;;6.53;3.60;;;22.40;60.40;;;;;;5031933;28;20424;-47
2021/07/29 00:50:36;;;;;;;4.63;3.70;;;22.40;60.50;;;;;;5031270;28;20424;-49
2021/07/29 00:53:05;;;;;;;6.00;3.80;;;22.40;60.30;;;;;;5029982;28;20887;-46
2021/07/29 00:55:30;;;;;;;3.73;3.40;;;22.40;60.30;;;;;;5031201;28;20444;-47
2021/07/29 00:57:57;;;;;;;4.73;4.33;;;22.40;60.00;;;;;;5031338;28;20494;-49
2021/07/29 01:00:23;;;;;;;4.17;3.77;;;22.40;60.20;;;;;;5031586;28;20201;-47
2021/07/29 01:02:48;;;;;;;4.40;4.00;;;22.40;60.20;;;;;;5030934;28;20423;-47
2021/07/29 01:05:15;;;;;;;5.97;3.77;;;22.40;59.90;;;;;;5031518;28;20242;-46
2021/07/29 01:07:40;;;;;;;3.63;3.33;;;22.40;59.80;;;;;;5031099;28;20193;-47
2021/07/29 01:10:06;;;;;;;4.43;4.03;;;22.30;60.00;;;;;;5031852;28;20911;-46
2021/07/29 01:12:33;;;;;;;4.77;3.93;;;22.40;60.30;;;;;;5030932;28;20722;-46
2021/07/29 01:14:58;;;;;;;4.33;3.90;;;22.30;60.60;;;;;;5031162;28;20448;-47
2021/07/29 01:17:24;;;;;;;5.30;3.90;;;22.20;61.40;;;;;;5030668;28;20518;-48
2021/07/29 01:19:50;;;;;;;5.83;4.77;;;22.10;61.70;;;;;;5043100;28;20676;-47
2021/07/29 01:22:15;;;;;;;5.47;4.00;;;22.00;62.20;;;;;;5031038;28;20197;-47
2021/07/29 01:24:41;;;;;;;3.97;3.67;;;22.00;62.20;;;;;;5031186;28;20192;-47
2021/07/29 01:27:06;;;;;;;5.20;4.70;;;22.00;62.60;;;;;;5030951;28;20209;-46
2021/07/29 01:29:32;;;;;;;6.93;4.47;;;21.90;62.80;;;;;;5031764;28;20195;-46
2021/07/29 01:31:58;;;;;;;5.57;5.07;;;21.80;63.20;;;;;;5030664;28;20577;-47
2021/07/29 01:34:24;;;;;;;4.10;3.80;;;21.70;63.90;;;;;;5031025;28;20200;-47
2021/07/29 01:36:50;;;;;;;4.97;4.47;;;21.60;64.20;;;;;;5031016;28;20197;-47
2021/07/29 01:39:15;;;;;;;4.30;4.00;;;21.40;64.80;;;;;;5033617;28;20876;-47
2021/07/29 01:41:41;;;;;;;4.40;4.10;;;21.40;65.20;;;;;;5034678;28;20185;-46
2021/07/29 01:44:06;;;;;;;4.37;3.97;;;21.40;65.00;;;;;;5034915;28;21329;-46
2021/07/29 01:46:32;;;;;;;6.30;4.00;;;21.40;64.90;;;;;;5033224;28;20657;-47
2021/07/29 01:48:58;;;;;;;4.93;4.10;;;21.60;64.50;;;;;;5025156;28;20197;-47
2021/07/29 01:51:23;;;;;;;5.27;4.00;;;21.60;64.30;;;;;;5034991;28;20218;-47
2021/07/29 01:53:49;;;;;;;5.03;4.53;;;21.50;64.70;;;;;;5034697;28;20552;-46
2021/07/29 01:56:14;;;;;;;4.87;4.37;;;21.40;64.80;;;;;;5034799;28;20276;-47
2021/07/29 01:58:40;;;;;;;5.70;5.20;;;21.50;64.80;;;;;;5034812;28;20216;-46
2021/07/29 02:01:06;;;;;;;6.07;4.30;;;21.60;64.20;;;;;;5034649;28;20340;-47
2021/07/29 02:03:31;;;;;;;5.03;4.53;;;21.70;64.00;;;;;;5034596;28;20212;-47
2021/07/29 02:06:01;;;;;;;5.33;4.83;;;21.80;63.50;;;;;;5034411;28;20212;-48
2021/07/29 02:08:27;;;;;;;5.33;4.43;;;21.90;62.80;;;;;;5034654;28;20208;-46
2021/07/29 02:10:53;;;;;;;6.33;5.30;;;21.90;63.00;;;;;;5033789;28;20427;-46
2021/07/29 02:13:18;;;;;;;5.13;4.73;;;21.90;62.80;;;;;;5033501;28;20697;-46
2021/07/29 02:15:44;;;;;;;4.57;4.23;;;22.00;62.50;;;;;;5034506;28;20583;-46
2021/07/29 02:18:09;;;;;;;6.10;4.33;;;22.00;62.30;;;;;;5035948;28;20647;-46
2021/07/29 02:20:35;;;;;;;4.87;4.37;;;22.10;61.90;;;;;;5045534;28;20231;-49
2021/07/29 02:23:00;;;;;;;6.60;4.53;;;22.20;61.60;;;;;;5034244;28;20200;-46
2021/07/29 02:25:26;;;;;;;5.53;5.03;;;22.20;61.30;;;;;;5034504;28;20254;-46
2021/07/29 02:27:51;;;;;;;5.40;4.00;;;22.20;61.10;;;;;;5033913;28;20193;-48
2021/07/29 02:30:17;;;;;;;4.63;4.17;;;22.30;60.90;;;;;;5034400;28;20204;-48
2021/07/29 02:32:42;;;;;;;4.67;4.10;;;22.30;60.80;;;;;;5034128;28;20195;-46
2021/07/29 02:35:09;;;;;;;5.50;4.97;;;22.30;60.70;;;;;;5033861;28;20545;-48
2021/07/29 02:37:34;;;;;;;6.60;4.60;;;22.30;60.60;;;;;;5032046;28;20256;-52
2021/07/29 02:40:00;;;;;;;4.43;4.13;;;22.20;60.50;;;;;;5034405;28;20452;-46
2021/07/29 02:42:27;;;;;;;4.80;4.40;;;22.20;60.30;;;;;;5033884;28;20221;-47
2021/07/29 02:44:52;;;;;;;5.00;4.60;;;22.20;60.20;;;;;;5033854;28;20211;-46
2021/07/29 02:47:18;;;;;;;5.70;4.80;;;22.20;60.30;;;;;;5033457;28;20425;-46
2021/07/29 02:49:44;;;;;;;4.53;4.13;;;22.10;60.30;;;;;;5023941;28;20641;-46
2021/07/29 02:52:09;;;;;;;4.37;3.97;;;22.10;60.60;;;;;;5033361;28;20197;-46
2021/07/29 02:54:35;;;;;;;4.90;4.43;;;21.90;61.30;;;;;;5033842;28;20198;-47
2021/07/29 02:57:01;;;;;;;4.60;4.17;;;21.80;61.60;;;;;;5033107;28;20584;-47
2021/07/29 02:59:26;;;;;;;5.40;3.87;;;21.50;62.70;;;;;;5034003;28;20244;-46
2021/07/29 03:01:52;;;;;;;4.33;3.70;;;21.20;63.70;;;;;;5033438;28;20201;-46
2021/07/29 03:04:20;;;;;;;10.50;4.60;;;21.20;64.10;;;;;;5031755;28;20196;-47
2021/07/29 03:06:46;;;;;;;7.60;4.70;;;20.90;65.10;;;;;;5033484;28;20205;-46
2021/07/29 03:09:13;;;;;;;5.10;4.60;;;20.70;65.80;;;;;;5033847;28;20420;-48
2021/07/29 03:11:38;;;;;;;5.53;4.60;;;20.80;65.90;;;;;;5032982;28;20675;-46
2021/07/29 03:14:04;;;;;;;5.00;4.50;;;20.90;65.60;;;;;;5033149;28;20421;-47
2021/07/29 03:16:30;;;;;;;4.30;3.90;;;20.90;65.40;;;;;;5033600;28;20204;-46
2021/07/29 03:18:55;;;;;;;4.87;4.47;;;20.80;65.20;;;;;;5041399;28;20306;-49
2021/07/29 03:21:21;;;;;;;4.47;4.07;;;21.00;65.30;;;;;;5037767;28;20201;-47
2021/07/29 03:23:46;;;;;;;4.50;4.10;;;21.10;64.60;;;;;;5033475;28;20204;-48
2021/07/29 03:26:12;;;;;;;5.13;3.93;;;21.10;64.50;;;;;;5033130;28;20657;-46
2021/07/29 03:28:38;;;;;;;5.70;3.73;;;21.10;64.40;;;;;;5033178;28;20185;-46
2021/07/29 03:31:03;;;;;;;4.13;3.80;;;21.20;64.10;;;;;;5030979;28;20197;-49
2021/07/29 03:33:29;;;;;;;6.70;4.13;;;21.20;63.70;;;;;;5033082;28;20196;-46
2021/07/29 03:35:54;;;;;;;4.77;4.27;;;21.00;64.30;;;;;;5032446;28;20220;-46
2021/07/29 03:38:20;;;;;;;4.70;4.30;;;21.10;64.60;;;;;;5033324;28;20229;-46
2021/07/29 03:40:46;;;;;;;5.03;4.53;;;20.90;65.10;;;;;;5032768;28;20201;-47
2021/07/29 03:43:12;;;;;;;4.80;4.37;;;20.90;65.70;;;;;;5033073;28;20201;-46
2021/07/29 03:45:44;;;;;;;6.23;4.70;;;20.80;65.80;;;;;;5032454;28;20446;-47
2021/07/29 03:48:11;;;;;;;4.60;4.10;;;20.70;66.20;;;;;;5032848;28;20189;-47
2021/07/29 03:50:38;;;;;;;4.57;4.17;;;20.70;66.50;;;;;;5032136;28;21013;-47
2021/07/29 03:53:03;;;;;;;4.73;4.33;;;20.70;66.50;;;;;;5032560;28;20436;-46
2021/07/29 03:55:29;;;;;;;4.70;4.30;;;20.70;66.10;;;;;;5032833;28;20435;-46
2021/07/29 03:57:54;;;;;;;5.50;4.90;;;20.80;66.00;;;;;;5030550;28;20247;-47
2021/07/29 04:00:20;;;;;;;5.20;4.50;;;20.70;66.10;;;;;;5032746;28;20197;-46
2021/07/29 04:02:46;;;;;;;5.30;4.80;;;20.70;66.20;;;;;;5031487;28;20196;-47
2021/07/29 04:05:11;;;;;;;5.40;4.90;;;20.80;66.00;;;;;;5032545;28;20630;-46
2021/07/29 04:07:37;;;;;;;5.33;4.93;;;20.80;66.00;;;;;;5032022;28;20624;-46
2021/07/29 04:10:04;;;;;;;5.80;5.20;;;20.70;66.20;;;;;;5032662;28;20236;-47
2021/07/29 04:12:31;;;;;;;4.70;4.30;;;20.50;66.70;;;;;;5032109;28;20247;-48
2021/07/29 04:14:56;;;;;;;10.13;5.07;;;20.40;67.20;;;;;;5032254;28;20985;-47
2021/07/29 04:17:22;;;;;;;5.30;4.80;;;20.50;67.00;;;;;;5031877;28;20487;-46
2021/07/29 04:19:48;;;;;;;5.07;4.57;;;20.50;67.20;;;;;;5045677;28;20220;-46
2021/07/29 04:22:14;;;;;;;5.83;4.77;;;20.50;67.00;;;;;;5032126;28;20243;-47
2021/07/29 04:24:40;;;;;;;4.93;4.40;;;20.70;66.70;;;;;;5030158;28;20424;-47
2021/07/29 04:27:05;;;;;;;5.60;3.80;;;20.70;66.30;;;;;;5032031;28;20739;-48
2021/07/29 04:29:32;;;;;;;5.23;4.83;;;20.80;66.00;;;;;;5032478;28;20424;-47
2021/07/29 04:31:58;;;;;;;6.10;5.60;;;20.90;65.60;;;;;;5031717;28;20276;-46
2021/07/29 04:34:24;;;;;;;5.27;4.70;;;21.00;65.30;;;;;;5031741;28;20464;-46
2021/07/29 04:36:52;;;;;;;4.30;3.90;;;21.10;65.00;;;;;;5031555;28;20456;-46
2021/07/29 04:39:18;;;;;;;6.53;5.27;;;21.10;64.70;;;;;;5032085;28;20424;-48
2021/07/29 04:41:44;;;;;;;5.30;4.90;;;21.10;64.80;;;;;;5031611;28;20494;-46
2021/07/29 04:44:11;;;;;;;4.57;4.17;;;21.10;65.00;;;;;;5031427;28;20520;-46
2021/07/29 04:46:39;;;;;;;5.30;4.60;;;21.00;65.50;;;;;;5031441;28;20424;-46
2021/07/29 04:49:05;;;;;;;10.10;7.70;;;21.00;65.30;;;;;;5022147;28;20823;-51
2021/07/29 04:51:35;;;;;;;6.87;5.30;;;21.00;65.40;;;;;;5029698;28;20432;-46
2021/07/29 04:54:01;;;;;;;6.93;5.20;;;21.10;64.80;;;;;;5031590;28;20767;-49
2021/07/29 04:56:27;;;;;;;6.67;5.10;;;21.00;65.20;;;;;;5031309;28;20457;-46
2021/07/29 04:58:53;;;;;;;5.20;4.70;;;21.10;64.90;;;;;;5031656;28;20484;-46
2021/07/29 05:01:19;;;;;;;4.70;4.30;;;21.10;64.40;;;;;;5031213;28;20216;-46
2021/07/29 05:03:46;;;;;;;8.27;4.67;;;21.20;64.20;;;;;;5031385;28;20204;-46
2021/07/29 05:06:12;;;;;;;5.40;4.10;;;21.30;63.60;;;;;;5031312;28;20435;-48
2021/07/29 05:08:38;;;;;;;4.63;4.17;;;21.40;63.40;;;;;;5031565;28;20443;-46
2021/07/29 05:11:05;;;;;;;4.60;4.13;;;21.20;64.10;;;;;;5030885;28;20436;-46
2021/07/29 05:13:31;;;;;;;5.37;4.87;;;21.10;64.30;;;;;;5031164;28;20444;-46
2021/07/29 05:15:57;;;;;;;3.93;3.63;;;21.20;63.70;;;;;;5030525;28;20427;-48
2021/07/29 05:18:22;;;;;;;4.90;4.27;;;21.30;62.80;;;;;;5033729;28;20501;-47
2021/07/29 05:20:48;;;;;;;4.50;4.13;;;21.40;62.60;;;;;;5040508;28;20188;-46
2021/07/29 05:23:15;;;;;;;4.53;4.07;;;21.50;62.60;;;;;;5031211;28;20193;-46
2021/07/29 05:25:41;;;;;;;4.57;3.47;;;21.50;62.70;;;;;;5031176;28;20642;-48
2021/07/29 05:28:07;;;;;;;3.90;3.60;;;21.40;62.90;;;;;;5031488;28;20429;-46
2021/07/29 05:30:35;;;;;;;5.60;4.50;;;21.40;63.50;;;;;;5031362;28;20908;-47
2021/07/29 05:33:01;;;;;;;3.93;3.43;;;21.30;63.80;;;;;;5031053;28;20196;-46
2021/07/29 05:35:26;;;;;;;4.43;4.10;;;21.40;63.90;;;;;;5031475;28;20443;-47
2021/07/29 05:37:52;;;;;;;4.07;3.70;;;21.50;63.40;;;;;;5030756;28;20312;-46
2021/07/29 05:40:18;;;;;;;4.97;4.57;;;21.60;63.50;;;;;;5031412;28;20193;-47
2021/07/29 05:42:43;;;;;;;5.07;4.17;;;21.80;63.00;;;;;;5028713;28;20264;-47
2021/07/29 05:45:09;;;;;;;4.07;3.73;;;22.10;62.20;;;;;;5031765;28;20186;-46
2021/07/29 05:47:37;;;;;;;4.70;4.30;;;22.20;61.80;;;;;;5030561;28;20633;-46
2021/07/29 05:50:04;;;;;;;5.83;3.83;;;22.20;61.50;;;;;;5021640;28;20676;-48
2021/07/29 05:52:30;;;;;;;4.27;3.90;;;22.20;62.00;;;;;;5030893;28;20443;-46
2021/07/29 05:54:55;;;;;;;4.53;4.00;;;22.30;61.90;;;;;;5030663;28;20420;-46
2021/07/29 05:57:21;;;;;;;5.10;3.67;;;22.10;62.10;;;;;;5030733;28;20225;-46
2021/07/29 05:59:46;;;;;;;5.00;4.23;;;22.20;62.10;;;;;;5031323;28;20186;-49
2021/07/29 06:02:12;;;;;;;3.83;3.53;;;22.40;62.40;;;;;;5030840;28;20251;-47
2021/07/29 06:04:37;;;;;;;4.77;4.00;;;22.60;62.20;;;;;;5030807;28;20272;-46
2021/07/29 06:07:03;;;;;;;7.60;4.63;;;22.80;61.80;;;;;;5030248;28;20543;-48
2021/07/29 06:09:29;;;;;;;5.53;4.90;;;22.90;61.50;;;;;;5029692;28;20197;-47
2021/07/29 06:11:56;;;;;;;4.30;4.00;;;22.90;61.60;;;;;;5030591;28;20221;-46
2021/07/29 06:14:21;;;;;;;5.10;4.70;;;22.90;61.40;;;;;;5030768;28;20193;-46
2021/07/29 06:16:47;;;;;;;5.13;4.47;;;23.00;61.10;;;;;;5030145;28;20482;-49
2021/07/29 06:19:28;;;;;;;8.53;4.07;;;23.10;60.80;;;;;;5041735;28;20223;-46
2021/07/29 06:21:55;;;;;;;5.63;3.83;;;23.30;60.00;;;;;;5031090;28;20649;-46
2021/07/29 06:24:21;;;;;;;4.40;4.00;;;23.30;59.30;;;;;;5030816;28;20432;-47
2021/07/29 06:26:48;;;;;;;5.00;4.60;;;23.50;59.10;;;;;;5033794;28;20424;-47
2021/07/29 06:29:14;;;;;;;4.07;3.73;;;23.60;58.80;;;;;;5034675;28;20254;-47
2021/07/29 06:31:39;;;;;;;3.37;3.17;;;23.70;58.90;;;;;;5033836;28;20420;-46
2021/07/29 06:34:05;;;;;;;4.30;3.83;;;23.80;58.20;;;;;;5033965;28;20584;-47
2021/07/29 06:36:30;;;;;;;3.47;3.20;;;23.90;57.90;;;;;;5032281;28;20217;-47
2021/07/29 06:38:57;;;;;;;3.67;3.37;;;24.10;57.80;;;;;;5034472;28;20221;-47
2021/07/29 06:41:23;;;;;;;3.93;3.17;;;24.20;58.30;;;;;;5034036;28;20653;-47
2021/07/29 06:43:49;;;;;;;4.10;3.53;;;24.30;57.70;;;;;;5033817;28;20439;-47
2021/07/29 06:46:14;;;;;;;3.50;3.20;;;24.40;57.40;;;;;;5033772;28;20272;-47
2021/07/29 06:48:40;;;;;;;7.43;3.30;;;24.60;57.50;;;;;;5034268;28;20768;-47
2021/07/29 06:51:06;;;;;;;5.27;3.37;;;24.60;57.10;;;;;;5033724;28;20697;-46
2021/07/29 06:53:35;;;;;;;4.37;3.90;;;24.60;56.50;;;;;;5033626;28;20704;-47
2021/07/29 06:56:01;;;;;;;4.10;2.90;;;24.60;56.50;;;;;;5033483;28;20442;-47
2021/07/29 06:58:27;;;;;;;7.03;3.90;;;24.70;56.30;;;;;;5034138;28;20506;-47
2021/07/29 07:00:53;;;;;;;3.83;3.43;;;24.70;56.20;;;;;;5033334;28;20439;-46
2021/07/29 07:03:18;;;;;;;4.07;2.97;;;24.70;56.20;;;;;;5031765;28;20664;-48
2021/07/29 07:05:45;;;;;;;4.60;3.60;;;24.90;56.40;;;;;;5033469;28;20205;-47
2021/07/29 07:08:14;;;;;;;6.93;3.70;;;25.00;56.50;;;;;;5033784;28;20649;-46
2021/07/29 07:10:40;;;;;;;3.90;3.43;;;24.80;56.20;;;;;;5033141;28;20440;-48
2021/07/29 07:13:06;;;;;;;7.40;3.83;;;24.90;56.30;;;;;;5033211;28;20420;-47
2021/07/29 07:15:32;;;;;;;3.97;3.57;;;25.00;56.50;;;;;;5033354;28;20420;-49
2021/07/29 07:17:58;;;;;;;3.90;3.60;;;25.00;56.50;;;;;;5033162;28;20554;-48
2021/07/29 07:20:24;;;;;;;4.60;3.40;;;25.00;56.30;;;;;;5046539;28;20201;-47
2021/07/29 07:22:50;;;;;;;4.00;3.53;;;25.10;55.70;;;;;;5032664;28;20196;-47
2021/07/29 07:25:16;;;;;;;3.20;3.00;;;25.30;55.50;;;;;;5034719;28;20193;-47
2021/07/29 07:27:42;;;;;;;3.83;3.13;;;25.40;54.60;;;;;;5033046;28;20432;-46
2021/07/29 07:30:08;;;;;;;3.77;2.53;;;25.30;52.40;;;;;;5031956;28;20431;-47
2021/07/29 07:32:34;;;;;;;3.20;2.90;;;25.30;52.30;;;;;;5032425;28;20338;-47
2021/07/29 07:34:59;;;;;;;3.30;2.90;;;25.30;52.20;;;;;;5033274;28;20428;-50
2021/07/29 07:37:25;;;;;;;3.50;3.20;;;25.30;51.30;;;;;;5032677;28;20609;-49
2021/07/29 07:39:50;;;;;;;3.40;3.10;;;25.40;50.90;;;;;;5033383;28;20193;-47
2021/07/29 07:42:16;;;;;;;3.20;2.90;;;25.60;50.50;;;;;;5032854;28;20201;-47
2021/07/29 07:44:42;;;;;;;3.70;3.30;;;25.50;50.00;;;;;;5032903;28;20565;-48
2021/07/29 07:47:07;;;;;;;3.70;3.30;;;25.40;49.80;;;;;;5032772;28;20201;-47
2021/07/29 07:49:33;;;;;;;5.07;3.20;;;25.20;49.60;;;;;;5022679;28;20197;-48
2021/07/29 07:52:00;;;;;;;3.93;2.93;;;25.30;49.20;;;;;;5032383;28;20197;-47
2021/07/29 07:54:25;;;;;;;3.70;3.40;;;25.30;48.90;;;;;;5032718;28;20429;-46
2021/07/29 07:56:51;;;;;;;4.50;3.50;;;25.10;48.60;;;;;;5030987;28;20432;-47
2021/07/29 07:59:17;;;;;;;3.10;2.87;;;25.40;49.40;;;;;;5032508;28;20205;-48
2021/07/29 08:01:44;;;;;;;3.13;2.80;;;25.40;49.00;;;;;;5032568;28;20215;-49
2021/07/29 08:04:10;;;;;;;3.70;3.40;;;25.50;48.40;;;;;;5032370;28;20204;-47
2021/07/29 08:06:36;;;;;;;5.00;3.60;;;25.60;48.50;;;;;;5032208;28;20424;-46
2021/07/29 08:09:03;;;;;;;3.17;2.90;;;25.60;47.80;;;;;;5032576;28;20190;-49
2021/07/29 08:11:29;;;;;;;5.60;3.23;;;26.00;47.80;;;;;;5032211;28;20436;-47
2021/07/29 08:13:55;;;;;;;3.67;3.37;;;25.80;47.50;;;;;;5032146;28;20450;-47
2021/07/29 08:16:21;;;;;;;7.03;3.30;;;25.90;47.70;;;;;;5031714;28;20533;-46
2021/07/29 08:18:46;;;;;;;4.03;3.13;;;26.00;47.60;;;;;;5039304;28;21038;-50
2021/07/29 08:21:12;;;;;;;3.50;3.20;;;25.90;47.80;;;;;;5037758;28;20191;-47
2021/07/29 08:23:42;;;;;;;7.23;3.40;;;25.80;47.20;;;;;;5031004;28;20284;-48
2021/07/29 08:26:10;;;;;;;4.53;3.50;;;25.90;46.90;;;;;;5031700;28;20718;-47
2021/07/29 08:28:39;;;;;;;3.40;3.10;;;25.90;47.50;;;;;;5032342;28;20439;-47
2021/07/29 08:31:10;;;;;;;4.13;3.63;;;25.90;47.70;;;;;;5031201;28;20903;-47
2021/07/29 08:33:36;;;;;;;3.83;3.47;;;26.00;48.10;;;;;;5032084;28;20785;-49
2021/07/29 08:36:01;;;;;;;3.90;3.50;;;26.30;47.00;;;;;;5031770;28;20428;-48
2021/07/29 08:38:27;;;;;;;3.40;3.10;;;26.30;46.40;;;;;;5032288;28;20232;-47
2021/07/29 08:40:54;;;;;;;2.87;2.67;;;26.70;48.30;;;;;;5031315;28;20285;-48
2021/07/29 08:43:21;;;;;;;7.30;3.13;;;26.90;49.00;;;;;;5031862;28;20185;-48
2021/07/29 08:45:50;;;;;;;3.50;3.20;;;27.30;48.50;;;;;;5031546;28;20447;-48
2021/07/29 08:48:26;;;;;;;5.57;3.50;;;27.40;47.60;;;;;;5024414;28;20417;-48
2021/07/29 08:50:52;;;;;;;4.20;2.90;;;27.60;47.90;;;;;;5029128;28;20435;-47
2021/07/29 08:53:19;;;;;;;5.13;3.43;;;27.60;46.30;;;;;;5031777;28;20522;-48
2021/07/29 08:55:48;;;;;;;3.20;2.90;;;27.70;46.00;;;;;;5031326;28;20456;-47
2021/07/29 08:58:14;;;;;;;4.00;3.60;;;28.00;47.40;;;;;;5031791;28;20487;-47
2021/07/29 09:00:56;;;;;;;5.57;3.57;;;28.20;46.60;;;;;;5031274;28;20435;-48
2021/07/29 09:03:25;;;;;;;3.53;3.23;;;28.20;44.40;;;;;;5031491;28;20200;-49
2021/07/29 09:06:21;;;;;;;4.77;4.10;;;28.00;43.50;;;;;;5030907;28;20431;-47
2021/07/29 09:08:51;;;;;;;4.20;3.80;;;27.90;43.50;;;;;;5031632;28;20523;-50
2021/07/29 09:11:30;;;;;;;3.70;3.40;;;27.90;43.20;;;;;;5031179;28;20444;-49
2021/07/29 09:14:18;;;;;;;3.50;3.20;;;27.80;43.30;;;;;;5031810;28;20440;-48
2021/07/29 09:16:54;;;;;;;4.00;3.60;;;27.70;43.10;;;;;;5030288;28;20829;-47
2021/07/29 09:19:31;;;;;;;3.70;3.40;;;27.60;43.10;;;;;;5043076;28;20434;-47
2021/07/29 09:22:19;;;;;;;3.13;2.93;;;27.20;43.30;;;;;;5031469;28;20439;-48
2021/07/29 09:24:59;;;;;;;3.90;3.27;;;27.60;46.10;;;;;;5031593;28;20436;-47
2021/07/29 09:27:26;;;;;;;3.70;3.40;;;28.00;46.50;;;;;;5030907;28;20493;-48
2021/07/29 09:29:52;;;;;;;3.10;2.80;;;28.30;46.40;;;;;;5031252;28;20421;-47
2021/07/29 09:32:19;;;;;;;3.60;3.30;;;28.60;45.60;;;;;;5030445;28;20428;-48
2021/07/29 09:34:47;;;;;;;3.40;3.10;;;28.60;45.00;;;;;;5031784;28;20229;-48
2021/07/29 09:37:17;;;;;;;5.37;3.27;;;28.70;45.30;;;;;;5030977;28;20952;-50
2021/07/29 09:39:43;;;;;;;3.70;3.40;;;28.80;45.10;;;;;;5031401;28;21495;-47
2021/07/29 09:42:24;;;;;;;3.60;3.27;;;29.00;44.80;;;;;;5029374;28;20455;-49
2021/07/29 09:44:52;;;;;;;3.50;3.10;;;29.20;43.90;;;;;;5031472;28;20858;-48
2021/07/29 09:47:18;;;;;;;3.30;3.00;;;29.10;42.30;;;;;;5030419;28;20447;-49
2021/07/29 09:49:44;;;;;;;4.23;3.53;;;28.90;41.70;;;;;;5021223;28;20482;-48
2021/07/29 09:52:10;;;;;;;5.60;3.37;;;29.00;41.50;;;;;;5030677;28;20459;-50
2021/07/29 09:54:41;;;;;;;3.97;3.63;;;28.70;41.10;;;;;;5030790;28;20428;-48
2021/07/29 09:57:08;;;;;;;3.70;3.27;;;28.30;40.70;;;;;;5030656;28;20739;-48
2021/07/29 09:59:35;;;;;;;4.37;3.97;;;28.30;40.50;;;;;;5031816;28;20801;-47
2021/07/29 10:02:02;;;;;;;4.10;3.70;;;28.30;40.30;;;;;;5034592;28;20423;-48
2021/07/29 10:04:41;;;;;;;4.60;3.60;;;28.20;40.90;;;;;;5034708;28;20893;-48
2021/07/29 10:07:22;;;;;;;8.53;3.83;;;28.00;40.90;;;;;;5033795;28;20444;-48
2021/07/29 10:09:49;;;;;;;4.90;4.10;;;27.80;40.20;;;;;;5035032;28;20896;-47
2021/07/29 10:12:20;;;;;;;8.20;3.60;;;28.00;40.80;;;;;;5033872;28;20477;-48
2021/07/29 10:14:47;;;;;;;3.67;3.30;;;28.10;40.30;;;;;;5035277;28;20477;-47
2021/07/29 10:17:13;;;;;;;3.73;3.43;;;28.40;40.90;;;;;;5033963;28;20468;-47
2021/07/29 10:20:16;;;;;;;3.90;3.37;;;28.80;41.60;;;;;;5048375;28;20770;-48
2021/07/29 10:22:47;;;;;;;3.37;3.13;;;29.20;40.50;;;;;;5034168;28;20230;-47
2021/07/29 10:25:13;;;;;;;4.07;3.17;;;29.50;39.80;;;;;;5034819;28;20427;-47
2021/07/29 10:27:39;;;;;;;3.90;3.57;;;29.80;40.40;;;;;;5034479;28;20446;-48
2021/07/29 10:30:20;;;;;;;7.53;3.93;;;30.00;38.70;;;;;;5034420;28;20431;-48
2021/07/29 10:32:50;;;;;;;4.40;4.00;;;29.90;37.80;;;;;;5033584;28;20518;-48
2021/07/29 10:35:28;;;;;;;4.37;3.43;;;30.10;37.80;;;;;;5032961;28;20497;-48
2021/07/29 10:37:54;;;;;;;3.50;3.20;;;30.30;37.20;;;;;;5033993;28;21001;-48
2021/07/29 10:40:35;;;;;;;3.73;3.43;;;30.20;36.70;;;;;;5034131;28;20551;-48
2021/07/29 10:43:25;;;;;;;3.93;3.50;;;30.30;37.30;;;;;;5033922;28;20283;-48
2021/07/29 10:45:56;;;;;;;4.47;3.80;;;30.00;36.70;;;;;;5033630;28;20586;-48
2021/07/29 10:48:44;;;;;;;3.63;3.33;;;29.80;37.80;;;;;;5034483;28;20911;-48
2021/07/29 10:51:29;;;;;;;4.00;3.67;;;29.90;37.60;;;;;;5023501;28;20432;-47
2021/07/29 10:53:58;;;;;;;4.13;3.77;;;30.00;38.00;;;;;;5033461;28;20505;-49
2021/07/29 10:56:25;;;;;;;3.73;3.40;;;30.10;36.70;;;;;;5033645;28;20424;-48
2021/07/29 10:58:56;;;;;;;4.47;4.03;;;30.10;36.90;;;;;;5033916;28;20947;-47
2021/07/29 11:01:41;;;;;;;3.73;3.43;;;30.10;37.30;;;;;;5031678;28;20474;-47
2021/07/29 11:04:07;;;;;;;4.60;4.07;;;30.30;37.40;;;;;;5033359;28;20846;-48
2021/07/29 11:06:43;;;;;;;4.03;3.73;;;30.20;36.10;;;;;;5033315;28;20515;-49
2021/07/29 11:09:18;;;;;;;4.03;3.73;;;29.90;36.10;;;;;;5033871;28;20193;-47
2021/07/29 11:11:46;;;;;;;4.43;4.13;;;29.80;36.40;;;;;;5032872;28;20435;-47
2021/07/29 11:14:13;;;;;;;4.80;4.37;;;29.90;37.80;;;;;;5033542;28;20515;-48
2021/07/29 11:16:40;;;;;;;4.43;4.13;;;30.10;36.40;;;;;;5032959;28;20466;-48
2021/07/29 11:19:06;;;;;;;4.67;4.30;;;30.10;36.30;;;;;;5042734;28;20931;-48
2021/07/29 11:21:35;;;;;;;4.70;4.30;;;30.30;36.50;;;;;;5036672;28;20428;-48
2021/07/29 11:24:01;;;;;;;4.67;4.27;;;30.20;36.20;;;;;;5030594;28;20462;-47
2021/07/29 11:26:40;;;;;;;5.83;5.33;;;30.10;36.20;;;;;;5032719;28;20447;-48
2021/07/29 11:29:07;;;;;;;4.47;4.07;;;30.10;35.70;;;;;;5033149;28;20706;-48
2021/07/29 11:31:38;;;;;;;4.50;4.10;;;29.90;35.10;;;;;;5033112;28;20443;-48
2021/07/29 11:34:05;;;;;;;4.90;4.43;;;29.60;35.10;;;;;;5033120;28;20436;-50
2021/07/29 11:36:32;;;;;;;4.63;4.23;;;29.40;35.90;;;;;;5032532;28;20818;-47
2021/07/29 11:39:05;;;;;;;4.67;4.13;;;29.20;36.10;;;;;;5033361;28;20511;-48
2021/07/29 11:41:57;;;;;;;4.00;3.70;;;29.30;36.10;;;;;;5032863;28;20429;-50
2021/07/29 11:44:35;;;;;;;4.50;4.10;;;29.60;36.70;;;;;;5032780;28;20436;-47
2021/07/29 11:47:02;;;;;;;4.47;4.07;;;29.70;38.30;;;;;;5032434;28;20427;-48
2021/07/29 11:49:28;;;;;;;4.33;3.67;;;30.30;38.30;;;;;;5033048;28;20479;-48
2021/07/29 11:52:03;;;;;;;5.23;4.77;;;30.80;36.60;;;;;;5032478;28;20452;-49
2021/07/29 11:54:31;;;;;;;4.80;4.40;;;31.00;35.60;;;;;;5031256;28;20189;-48
2021/07/29 11:57:00;;;;;;;4.97;4.57;;;31.00;35.20;;;;;;5032311;28;20443;-48
2021/07/29 11:59:33;;;;;;;4.87;4.37;;;31.10;34.40;;;;;;5032848;28;20478;-47
2021/07/29 12:02:00;;;;;;;8.57;6.53;;;31.00;35.10;;;;;;5032218;28;20456;-49
2021/07/29 12:04:27;;;;;;;14.87;10.43;;;31.10;35.30;;;;;;5032956;28;20800;-48
2021/07/29 12:06:53;;;;;;;6.30;5.33;;;31.20;35.00;;;;;;5032112;28;20420;-48
2021/07/29 12:09:21;;;;;;;4.80;4.40;;;31.30;34.50;;;;;;5032598;28;20507;-48
2021/07/29 12:11:47;;;;;;;5.33;4.90;;;31.30;35.30;;;;;;5032367;28;20416;-48
2021/07/29 12:14:13;;;;;;;4.50;4.10;;;31.20;36.00;;;;;;5032323;28;20424;-48
2021/07/29 12:16:47;;;;;;;5.60;4.43;;;31.30;35.70;;;;;;5031989;28;20496;-49
2021/07/29 12:19:13;;;;;;;5.40;4.90;;;31.30;36.20;;;;;;5032110;28;20479;-48
2021/07/29 12:21:38;;;;;;;4.90;4.47;;;31.40;36.50;;;;;;5030064;28;20416;-48
2021/07/29 12:24:04;;;;;;;4.90;4.50;;;31.40;35.60;;;;;;5031489;28;20446;-48
2021/07/29 12:26:30;;;;;;;8.00;6.90;;;31.50;34.40;;;;;;5031923;28;20251;-47
2021/07/29 12:28:56;;;;;;;6.10;5.50;;;31.60;35.70;;;;;;5032577;28;20825;-50
2021/07/29 12:31:26;;;;;;;6.00;5.50;;;31.60;35.00;;;;;;5031489;28;20543;-49
2021/07/29 12:34:00;;;;;;;5.90;5.40;;;31.60;35.10;;;;;;5032016;28;20208;-48
2021/07/29 12:36:46;;;;;;;7.83;4.87;;;31.60;35.00;;;;;;5031733;28;21003;-48
2021/07/29 12:39:17;;;;;;;5.13;4.40;;;31.70;34.70;;;;;;5032053;28;20974;-49
2021/07/29 12:41:46;;;;;;;4.97;4.47;;;31.70;35.50;;;;;;5031533;28;20436;-47
2021/07/29 12:44:17;;;;;;;4.13;3.73;;;31.90;35.30;;;;;;5031828;28;20427;-48
2021/07/29 12:46:44;;;;;;;4.17;3.43;;;31.90;34.50;;;;;;5029997;28;20806;-47
2021/07/29 12:49:11;;;;;;;6.03;4.13;;;31.90;33.90;;;;;;5032237;28;20437;-48
2021/07/29 12:51:42;;;;;;;4.00;3.70;;;32.00;35.20;;;;;;5031375;28;20458;-49